Time;durP1;ratioP1;P1;durP2;ratioP2;P2;SDS_P1;SDS_P2;PMS_P1;PMS_P2;Temp;Humidity;BMP_temperature;BMP_pressure;BME280_temperature;BME280_humidity;BME280_pressure;Samples;Min_cycle;Max_cycle;Signal;HPM_P1;HPM_P2
2022/03/26 00:00:21;;;;;;;30.67;16.53;;;12.40;39.90;;;;;;5047241;28;20447;-71
2022/03/26 00:02:47;;;;;;;30.10;16.73;;;12.40;39.80;;;;;;5056220;28;20623;-71
2022/03/26 00:05:13;;;;;;;32.43;16.73;;;12.30;39.80;;;;;;5065230;28;20632;-71
2022/03/26 00:07:38;;;;;;;26.40;15.57;;;12.30;39.80;;;;;;5066865;28;20179;-71
2022/03/26 00:10:05;;;;;;;39.80;17.17;;;12.30;39.80;;;;;;5061449;28;20547;-72
2022/03/26 00:12:30;;;;;;;27.63;15.67;;;12.30;39.80;;;;;;5062560;28;20272;-72
2022/03/26 00:14:58;;;;;;;28.90;16.23;;;12.20;39.80;;;;;;5066937;28;20514;-72
2022/03/26 00:17:24;;;;;;;29.33;15.67;;;12.20;39.70;;;;;;5055621;28;20181;-72
2022/03/26 00:19:49;;;;;;;33.07;16.07;;;12.20;39.90;;;;;;5060016;28;20554;-72
2022/03/26 00:22:15;;;;;;;29.93;16.30;;;12.20;39.80;;;;;;5070212;28;20509;-72
2022/03/26 00:24:40;;;;;;;33.37;15.73;;;12.20;39.80;;;;;;5068868;28;20635;-72
2022/03/26 00:27:06;;;;;;;28.10;16.63;;;12.20;39.80;;;;;;5070112;28;20172;-71
2022/03/26 00:29:32;;;;;;;26.33;15.80;;;12.20;39.70;;;;;;5062491;28;20619;-72
2022/03/26 00:31:58;;;;;;;25.60;16.13;;;12.10;42.40;;;;;;5064818;28;20284;-71
2022/03/26 00:34:23;;;;;;;35.33;16.93;;;12.00;39.50;;;;;;5069338;28;20172;-72
2022/03/26 00:36:49;;;;;;;28.83;16.83;;;12.00;39.60;;;;;;5066747;28;20455;-72
2022/03/26 00:39:14;;;;;;;31.20;16.00;;;11.90;39.50;;;;;;5048413;28;20235;-72
2022/03/26 00:41:40;;;;;;;32.83;15.90;;;11.90;39.50;;;;;;5051345;28;20268;-72
2022/03/26 00:44:05;;;;;;;30.77;15.93;;;11.90;39.40;;;;;;5050836;28;20169;-71
2022/03/26 00:46:31;;;;;;;27.13;15.00;;;12.00;39.60;;;;;;5048849;28;20623;-71
2022/03/26 00:48:58;;;;;;;29.03;14.70;;;12.00;39.50;;;;;;5061421;28;20193;-72
2022/03/26 00:51:24;;;;;;;27.03;14.93;;;12.00;39.50;;;;;;5064945;28;20169;-72
2022/03/26 00:53:50;;;;;;;33.87;16.13;;;12.90;40.30;;;;;;5069556;28;20416;-72
2022/03/26 00:56:15;;;;;;;28.13;15.63;;;12.00;39.50;;;;;;5053024;28;20502;-71
2022/03/26 00:58:41;;;;;;;27.53;15.47;;;11.90;39.40;;;;;;5050458;28;20201;-72
2022/03/26 01:01:07;;;;;;;29.47;16.43;;;12.00;39.50;;;;;;5056975;28;20169;-72
2022/03/26 01:03:35;;;;;;;30.20;15.10;;;12.00;39.50;;;;;;5060917;28;20184;-72
2022/03/26 01:06:02;;;;;;;31.53;16.70;;;12.00;39.60;;;;;;5049844;28;20451;-72
2022/03/26 01:08:28;;;;;;;29.33;15.83;;;12.10;37.50;;;;;;5050363;28;20400;-71
2022/03/26 01:10:53;;;;;;;23.23;14.67;;;12.10;39.60;;;;;;5057313;28;20445;-72
2022/03/26 01:13:19;;;;;;;46.47;15.90;;;12.10;39.50;;;;;;5069816;28;20164;-71
2022/03/26 01:15:44;;;;;;;31.00;15.63;;;12.10;39.60;;;;;;5065023;28;20184;-71
2022/03/26 01:18:10;;;;;;;31.03;16.07;;;12.10;39.60;;;;;;5048875;28;20193;-72
2022/03/26 01:20:36;;;;;;;33.40;14.93;;;12.00;39.60;;;;;;5070973;28;20215;-72
2022/03/26 01:23:02;;;;;;;30.63;15.70;;;12.00;39.50;;;;;;5061193;28;20643;-72
2022/03/26 01:25:28;;;;;;;30.37;15.73;;;12.00;39.50;;;;;;5047646;28;20243;-72
2022/03/26 01:27:54;;;;;;;28.63;15.47;;;12.00;39.60;;;;;;5048955;28;20419;-71
2022/03/26 01:30:19;;;;;;;28.70;15.70;;;12.00;39.50;;;;;;5050770;28;20907;-72
2022/03/26 01:32:45;;;;;;;30.10;14.77;;;11.90;39.60;;;;;;5064425;28;20169;-72
2022/03/26 01:35:11;;;;;;;30.03;15.00;;;11.90;39.50;;;;;;5067976;28;20173;-72
2022/03/26 01:37:37;;;;;;;35.67;17.43;;;11.80;39.50;;;;;;5069307;28;20177;-72
2022/03/26 01:40:05;;;;;;;30.00;15.70;;;11.70;39.40;;;;;;5056964;28;20458;-72
2022/03/26 01:42:31;;;;;;;29.80;16.40;;;11.70;39.40;;;;;;5049551;28;20213;-71
2022/03/26 01:44:57;;;;;;;28.43;15.13;;;11.60;39.30;;;;;;5079070;28;20496;-71
2022/03/26 01:47:22;;;;;;;24.10;13.97;;;11.50;39.20;;;;;;5074323;28;20452;-72
2022/03/26 01:49:48;;;;;;;47.63;16.23;;;11.40;39.10;;;;;;5067144;28;20196;-72
2022/03/26 01:52:14;;;;;;;27.03;14.97;;;11.20;39.00;;;;;;5068782;28;20271;-72
2022/03/26 01:54:40;;;;;;;29.80;14.93;;;11.20;39.20;;;;;;5067883;28;20303;-72
2022/03/26 01:57:10;;;;;;;30.67;15.80;;;11.00;38.80;;;;;;5065957;28;20177;-72
2022/03/26 01:59:37;;;;;;;27.47;15.90;;;10.80;38.60;;;;;;5049660;28;20423;-71
2022/03/26 02:02:03;;;;;;;26.00;13.97;;;10.50;38.40;;;;;;5058653;28;20438;-72
2022/03/26 02:04:28;;;;;;;29.33;14.97;;;10.30;38.40;;;;;;5068405;28;20575;-72
2022/03/26 02:06:54;;;;;;;28.40;15.53;;;10.00;42.30;;;;;;5063285;28;20915;-71
2022/03/26 02:09:20;;;;;;;32.40;14.80;;;9.90;47.70;;;;;;5068200;28;20637;-72
2022/03/26 02:11:46;;;;;;;26.70;14.50;;;9.70;48.90;;;;;;5066948;28;20507;-71
2022/03/26 02:14:13;;;;;;;30.63;15.33;;;9.60;49.00;;;;;;5061275;28;20170;-71
2022/03/26 02:16:41;;;;;;;26.00;15.30;;;9.60;47.70;;;;;;5067173;28;20403;-70
2022/03/26 02:19:09;;;;;;;32.20;15.50;;;10.00;42.30;;;;;;5053761;28;21030;-72
2022/03/26 02:21:37;;;;;;;27.97;14.47;;;10.20;38.40;;;;;;5066229;28;20566;-73
2022/03/26 02:24:04;;;;;;;24.43;14.27;;;10.50;38.30;;;;;;5068061;28;21023;-72
2022/03/26 02:26:30;;;;;;;26.40;15.40;;;10.80;38.60;;;;;;5065806;28;20458;-71
2022/03/26 02:29:03;;;;;;;24.67;13.77;;;11.10;38.90;;;;;;5047414;28;20439;-72
2022/03/26 02:31:28;;;;;;;28.27;15.13;;;11.30;39.00;;;;;;5046884;28;20173;-71
2022/03/26 02:33:54;;;;;;;27.27;14.20;;;11.50;39.30;;;;;;5065291;28;20422;-72
2022/03/26 02:36:19;;;;;;;26.60;14.00;;;11.70;39.50;;;;;;5068125;28;20172;-72
2022/03/26 02:38:45;;;;;;;30.20;15.47;;;11.70;39.40;;;;;;5067602;28;20197;-71
2022/03/26 02:41:11;;;;;;;26.77;13.77;;;11.70;39.40;;;;;;5067960;28;20248;-72
2022/03/26 02:43:37;;;;;;;27.60;13.93;;;11.70;39.50;;;;;;5052969;28;20168;-72
2022/03/26 02:46:03;;;;;;;30.70;14.70;;;11.70;39.40;;;;;;5057797;28;20469;-72
2022/03/26 02:48:29;;;;;;;32.07;16.70;;;11.30;36.90;;;;;;5050501;28;20173;-72
2022/03/26 02:50:54;;;;;;;30.53;16.63;;;11.30;39.20;;;;;;5071823;28;20515;-72
2022/03/26 02:53:20;;;;;;;28.17;16.27;;;10.90;42.40;;;;;;5062591;28;20423;-72
2022/03/26 02:55:46;;;;;;;30.20;16.53;;;10.60;45.30;;;;;;5054425;28;20636;-71
2022/03/26 02:58:11;;;;;;;28.47;16.40;;;10.30;49.10;;;;;;5068360;28;20190;-71
2022/03/26 03:00:38;;;;;;;34.77;17.70;;;10.10;51.30;;;;;;5058887;28;20208;-71
2022/03/26 03:03:04;;;;;;;30.00;16.57;;;9.90;54.70;;;;;;5046860;28;20173;-71
2022/03/26 03:05:29;;;;;;;27.67;16.37;;;9.70;56.40;;;;;;5053966;28;20462;-71
2022/03/26 03:07:55;;;;;;;31.90;17.07;;;9.50;57.20;;;;;;5066107;28;20419;-71
2022/03/26 03:10:20;;;;;;;32.63;15.80;;;9.40;60.00;;;;;;5066928;28;20192;-72
2022/03/26 03:12:47;;;;;;;34.10;17.70;;;9.30;61.40;;;;;;5066144;28;20199;-71
2022/03/26 03:15:15;;;;;;;34.40;16.10;;;9.20;60.60;;;;;;5065257;28;20192;-71
2022/03/26 03:17:41;;;;;;;36.53;17.10;;;9.10;63.00;;;;;;5064139;28;20664;-71
2022/03/26 03:20:08;;;;;;;32.27;16.90;;;8.90;65.00;;;;;;5067151;28;20453;-71
2022/03/26 03:22:35;;;;;;;34.83;17.47;;;8.90;65.70;;;;;;5066892;28;20453;-72
2022/03/26 03:25:00;;;;;;;30.50;16.10;;;8.70;69.90;;;;;;5045792;28;20456;-71
2022/03/26 03:27:26;;;;;;;33.23;16.97;;;8.60;71.90;;;;;;5049150;28;20424;-71
2022/03/26 03:29:52;;;;;;;33.63;17.20;;;8.50;74.10;;;;;;5047587;28;20272;-71
2022/03/26 03:32:17;;;;;;;30.60;17.10;;;8.40;74.60;;;;;;5055904;28;20181;-71
2022/03/26 03:34:43;;;;;;;29.70;15.47;;;8.30;74.40;;;;;;5064199;28;20677;-72
2022/03/26 03:37:09;;;;;;;32.90;15.97;;;8.20;76.70;;;;;;5065956;28;20169;-72
2022/03/26 03:39:34;;;;;;;32.33;17.10;;;8.10;79.10;;;;;;5066853;28;20196;-71
2022/03/26 03:42:00;;;;;;;31.63;17.60;;;7.80;80.40;;;;;;5054806;28;20211;-71
2022/03/26 03:44:26;;;;;;;31.40;16.57;;;8.00;84.30;;;;;;5045726;28;20188;-71
2022/03/26 03:46:52;;;;;;;32.87;15.97;;;7.70;86.10;;;;;;5046979;28;20261;-71
2022/03/26 03:49:18;;;;;;;32.83;16.33;;;7.80;85.00;;;;;;5055599;28;20508;-71
2022/03/26 03:51:44;;;;;;;31.20;16.70;;;7.60;86.70;;;;;;5073219;28;20784;-71
2022/03/26 03:54:10;;;;;;;28.30;16.30;;;7.50;89.00;;;;;;5068860;28;20423;-71
2022/03/26 03:56:35;;;;;;;30.97;16.40;;;7.50;88.10;;;;;;5069795;28;20461;-71
2022/03/26 03:59:01;;;;;;;27.80;15.10;;;7.40;90.80;;;;;;5070567;28;20245;-71
2022/03/26 04:01:26;;;;;;;32.23;16.07;;;7.50;92.30;;;;;;5071337;28;20180;-71
2022/03/26 04:03:52;;;;;;;35.37;17.30;;;7.10;92.60;;;;;;5066153;28;20305;-71
2022/03/26 04:06:18;;;;;;;31.23;17.73;;;7.10;93.20;;;;;;5071454;28;20199;-71
2022/03/26 04:08:43;;;;;;;35.13;17.50;;;6.90;94.90;;;;;;5059590;28;20575;-71
2022/03/26 04:11:09;;;;;;;31.00;16.97;;;6.80;96.40;;;;;;5060768;28;20415;-70
2022/03/26 04:13:35;;;;;;;33.57;17.40;;;6.70;98.00;;;;;;5063084;28;20237;-71
2022/03/26 04:16:01;;;;;;;31.87;18.43;;;6.70;98.00;;;;;;5070806;28;20192;-71
2022/03/26 04:18:26;;;;;;;26.90;15.90;;;6.50;98.00;;;;;;5055388;28;20446;-71
2022/03/26 04:20:53;;;;;;;28.00;17.13;;;6.40;98.10;;;;;;5074971;28;20181;-71
2022/03/26 04:23:19;;;;;;;34.30;18.77;;;6.30;99.90;;;;;;5070210;28;20179;-71
2022/03/26 04:25:45;;;;;;;30.40;17.70;;;6.30;99.90;;;;;;5054487;28;20424;-71
2022/03/26 04:28:11;;;;;;;36.27;17.20;;;6.20;99.90;;;;;;5050289;28;20213;-71
2022/03/26 04:30:37;;;;;;;32.40;18.30;;;6.30;99.90;;;;;;5049399;28;20431;-71
2022/03/26 04:33:02;;;;;;;36.90;17.70;;;6.30;99.90;;;;;;5054452;28;20441;-71
2022/03/26 04:35:28;;;;;;;34.03;17.53;;;6.30;99.90;;;;;;5070385;28;20196;-71
2022/03/26 04:37:56;;;;;;;32.70;17.37;;;6.30;99.90;;;;;;5069120;28;20198;-71
2022/03/26 04:40:22;;;;;;;34.73;17.97;;;6.20;99.90;;;;;;5050017;28;20185;-71
2022/03/26 04:42:48;;;;;;;32.53;17.27;;;6.20;99.90;;;;;;5050779;28;20496;-71
2022/03/26 04:45:13;;;;;;;31.57;17.40;;;6.20;99.90;;;;;;5050700;28;20885;-71
2022/03/26 04:47:39;;;;;;;27.53;15.63;;;6.10;99.90;;;;;;5058238;28;20176;-71
2022/03/26 04:50:06;;;;;;;29.67;16.17;;;6.00;99.90;;;;;;5067809;28;20197;-71
2022/03/26 04:52:32;;;;;;;35.20;17.77;;;5.90;99.90;;;;;;5063102;28;20262;-71
2022/03/26 04:54:58;;;;;;;29.90;17.43;;;5.90;99.90;;;;;;5068702;28;20501;-71
2022/03/26 04:57:23;;;;;;;43.97;17.63;;;5.80;99.90;;;;;;5069603;28;20172;-71
2022/03/26 04:59:49;;;;;;;32.03;16.20;;;5.80;99.90;;;;;;5068237;28;20190;-70
2022/03/26 05:02:14;;;;;;;31.30;17.80;;;5.80;99.90;;;;;;5053907;28;20303;-71
2022/03/26 05:04:40;;;;;;;33.77;17.20;;;5.70;99.90;;;;;;5050284;28;20180;-71
2022/03/26 05:09:50;;;;;;;40.20;18.00;;;5.60;99.90;;;;;;5069730;28;20215;-70
2022/03/26 05:12:17;;;;;;;31.60;17.63;;;5.60;99.90;;;;;;5067086;28;20430;-71
2022/03/26 05:14:43;;;;;;;33.63;17.63;;;5.60;99.90;;;;;;5067285;28;20204;-71
2022/03/26 05:17:09;;;;;;;35.13;18.80;;;5.50;99.90;;;;;;5063286;28;20429;-71
2022/03/26 05:19:34;;;;;;;31.70;17.13;;;5.50;99.90;;;;;;5065729;28;20461;-71
2022/03/26 05:22:00;;;;;;;35.33;18.17;;;5.50;99.90;;;;;;5075140;28;20201;-71
2022/03/26 05:24:26;;;;;;;33.93;18.93;;;5.40;99.90;;;;;;5061326;28;20207;-71
2022/03/26 05:26:52;;;;;;;33.33;17.83;;;5.40;99.90;;;;;;5048952;28;20174;-71
2022/03/26 05:29:17;;;;;;;35.70;17.00;;;5.40;99.90;;;;;;5052326;28;20209;-71
2022/03/26 05:31:43;;;;;;;30.70;18.10;;;5.40;99.90;;;;;;5059001;28;20181;-71
2022/03/26 05:34:09;;;;;;;29.53;17.13;;;5.30;99.90;;;;;;5067499;28;20736;-71
2022/03/26 05:36:34;;;;;;;32.73;17.53;;;5.30;99.90;;;;;;5068371;28;20204;-72
2022/03/26 05:39:00;;;;;;;31.30;17.13;;;5.30;99.90;;;;;;5069653;28;20322;-70
2022/03/26 05:41:26;;;;;;;34.33;18.47;;;5.20;99.90;;;;;;5053430;28;20223;-71
2022/03/26 05:43:51;;;;;;;33.80;17.40;;;5.20;99.90;;;;;;5048205;28;20205;-71
2022/03/26 05:46:17;;;;;;;36.43;17.97;;;5.20;99.90;;;;;;5049620;28;20184;-71
2022/03/26 05:48:42;;;;;;;36.60;18.53;;;5.30;99.90;;;;;;5050159;28;20636;-71
2022/03/26 05:51:08;;;;;;;35.07;17.17;;;5.30;99.90;;;;;;5067740;28;20185;-71
2022/03/26 05:53:34;;;;;;;31.73;17.97;;;5.40;99.90;;;;;;5063550;28;20180;-71
2022/03/26 05:56:00;;;;;;;31.60;17.00;;;5.40;99.90;;;;;;5066364;28;20205;-71
2022/03/26 05:58:26;;;;;;;38.00;18.40;;;5.40;99.90;;;;;;5067934;28;20507;-71
2022/03/26 06:00:52;;;;;;;33.73;17.70;;;5.50;99.90;;;;;;5054830;28;20538;-71
2022/03/26 06:03:18;;;;;;;34.03;17.33;;;5.50;99.90;;;;;;5045317;28;20185;-71
2022/03/26 06:05:45;;;;;;;30.50;17.50;;;5.50;99.90;;;;;;5045924;28;20519;-71
2022/03/26 06:08:11;;;;;;;33.30;17.13;;;5.50;99.90;;;;;;5060592;28;20618;-70
2022/03/26 06:10:36;;;;;;;31.17;16.80;;;5.50;99.90;;;;;;5065844;28;20506;-71
2022/03/26 06:13:02;;;;;;;32.67;18.70;;;5.60;99.90;;;;;;5065603;28;20185;-71
2022/03/26 06:15:28;;;;;;;33.83;18.10;;;5.70;99.90;;;;;;5066799;28;20219;-71
2022/03/26 06:17:53;;;;;;;34.30;17.97;;;5.80;99.90;;;;;;5054643;28;20177;-71
2022/03/26 06:20:19;;;;;;;32.10;17.20;;;5.90;99.90;;;;;;5068909;28;20225;-71
2022/03/26 06:22:44;;;;;;;32.67;16.43;;;6.10;99.90;;;;;;5065798;28;20191;-71
2022/03/26 06:25:10;;;;;;;37.57;17.33;;;6.40;99.90;;;;;;5059481;28;20193;-70
2022/03/26 06:27:35;;;;;;;35.67;18.43;;;6.80;99.90;;;;;;5047610;28;20197;-71
2022/03/26 06:30:02;;;;;;;34.60;18.77;;;7.40;99.90;;;;;;5051005;28;20200;-72
2022/03/26 06:32:27;;;;;;;31.50;18.40;;;8.00;99.90;;;;;;5068240;28;20218;-71
2022/03/26 06:34:53;;;;;;;32.70;17.30;;;8.60;98.90;;;;;;5065897;28;20450;-71
2022/03/26 06:37:20;;;;;;;32.93;17.80;;;9.10;95.80;;;;;;5069070;28;20202;-72
2022/03/26 06:39:46;;;;;;;31.23;17.80;;;9.40;92.20;;;;;;5064092;28;20188;-71
2022/03/26 06:42:11;;;;;;;34.60;18.23;;;10.00;87.90;;;;;;5046980;28;20467;-72
2022/03/26 06:44:37;;;;;;;30.37;18.20;;;10.40;82.60;;;;;;5049220;28;20206;-72
2022/03/26 06:47:04;;;;;;;32.80;17.93;;;10.70;77.80;;;;;;5064054;28;20484;-72
2022/03/26 06:49:31;;;;;;;35.13;18.80;;;10.60;78.20;;;;;;5054605;28;20722;-72
2022/03/26 06:51:57;;;;;;;41.07;19.50;;;10.30;83.70;;;;;;5065148;28;20423;-72
2022/03/26 06:54:23;;;;;;;33.50;18.50;;;10.10;82.80;;;;;;5065234;28;20714;-72
2022/03/26 06:56:48;;;;;;;27.93;17.57;;;9.80;86.80;;;;;;5055539;28;20462;-71
2022/03/26 06:59:14;;;;;;;30.50;17.77;;;10.00;84.10;;;;;;5068164;28;20184;-72
2022/03/26 07:01:39;;;;;;;29.30;18.03;;;10.50;80.50;;;;;;5067684;28;20171;-71
2022/03/26 07:04:05;;;;;;;32.53;18.80;;;10.80;75.90;;;;;;5066637;28;20181;-71
2022/03/26 07:06:30;;;;;;;31.10;17.50;;;10.50;75.30;;;;;;5059550;28;20679;-72
2022/03/26 07:08:56;;;;;;;35.53;19.30;;;10.30;79.90;;;;;;5046943;28;20350;-72
2022/03/26 07:11:21;;;;;;;30.93;16.93;;;10.10;81.80;;;;;;5053445;28;20214;-71
2022/03/26 07:13:47;;;;;;;29.83;17.20;;;10.10;86.40;;;;;;5058181;28;20172;-71
2022/03/26 07:16:13;;;;;;;29.20;16.53;;;10.10;84.80;;;;;;5057494;28;20201;-72
2022/03/26 07:18:39;;;;;;;32.10;18.30;;;10.30;84.80;;;;;;5057608;28;20192;-72
2022/03/26 07:21:04;;;;;;;30.13;17.00;;;10.90;78.00;;;;;;5077320;28;20243;-72
2022/03/26 07:23:30;;;;;;;34.37;16.90;;;11.70;72.30;;;;;;5088185;28;20331;-71
2022/03/26 07:25:56;;;;;;;34.90;17.80;;;12.60;66.40;;;;;;5073037;28;20214;-72
2022/03/26 07:28:22;;;;;;;34.43;18.30;;;13.60;60.60;;;;;;5048136;28;20169;-72
2022/03/26 07:30:47;;;;;;;38.40;19.10;;;14.50;56.10;;;;;;5055711;28;20199;-72
2022/03/26 07:33:13;;;;;;;33.33;20.73;;;14.90;49.20;;;;;;5067101;28;20422;-72
2022/03/26 07:35:39;;;;;;;36.10;22.00;;;15.20;42.60;;;;;;5059242;28;20204;-72
2022/03/26 07:38:04;;;;;;;36.57;22.23;;;15.70;42.80;;;;;;5061315;28;20527;-72
2022/03/26 07:40:30;;;;;;;37.03;22.27;;;16.10;43.20;;;;;;5056663;28;20212;-72
2022/03/26 07:42:55;;;;;;;32.43;21.83;;;16.50;43.50;;;;;;5058044;28;20806;-73
2022/03/26 07:45:21;;;;;;;34.87;22.23;;;17.00;43.80;;;;;;5066854;28;20817;-72
2022/03/26 07:47:47;;;;;;;34.03;22.45;;;17.40;44.20;;;;;;5056131;28;20509;-71
2022/03/26 07:50:12;;;;;;;34.13;21.53;;;17.90;43.10;;;;;;5068965;28;20681;-71
2022/03/26 07:52:38;;;;;;;33.93;23.10;;;18.30;40.60;;;;;;5064350;28;20173;-71
2022/03/26 07:55:05;;;;;;;34.57;22.63;;;19.00;37.00;;;;;;5053968;28;20188;-71
2022/03/26 07:57:30;;;;;;;32.30;21.50;;;19.30;27.80;;;;;;5068020;28;20422;-72
2022/03/26 07:59:56;;;;;;;37.93;22.20;;;19.20;26.40;;;;;;5062252;28;20521;-72
2022/03/26 08:02:21;;;;;;;33.03;21.87;;;19.60;27.10;;;;;;5046664;28;20253;-72
2022/03/26 08:04:47;;;;;;;29.90;21.50;;;20.00;24.70;;;;;;5065968;28;20176;-71
2022/03/26 08:07:13;;;;;;;33.63;21.93;;;20.40;25.60;;;;;;5062757;28;20180;-72
2022/03/26 08:09:39;;;;;;;38.30;21.63;;;21.20;23.30;;;;;;5046738;28;20199;-72
2022/03/26 08:12:05;;;;;;;32.27;22.10;;;21.70;21.40;;;;;;5047475;28;20411;-72
2022/03/26 08:14:33;;;;;;;33.30;21.90;;;22.30;20.50;;;;;;5065516;28;20186;-73
2022/03/26 08:16:58;;;;;;;30.97;22.50;;;23.00;16.30;;;;;;5064288;28;20187;-72
2022/03/26 08:19:24;;;;;;;31.37;20.70;;;23.20;15.50;;;;;;5065764;28;20665;-72
2022/03/26 08:21:49;;;;;;;32.33;21.10;;;23.20;14.30;;;;;;5064926;28;20195;-72
2022/03/26 08:24:15;;;;;;;35.87;22.40;;;23.70;13.80;;;;;;5063602;28;20187;-72
2022/03/26 08:26:40;;;;;;;31.47;22.63;;;24.00;13.10;;;;;;5062770;28;20183;-72
2022/03/26 08:29:06;;;;;;;33.47;21.90;;;24.30;13.00;;;;;;5061050;28;20769;-72
2022/03/26 08:31:32;;;;;;;34.13;22.90;;;24.90;8.00;;;;;;5063293;28;20190;-72
2022/03/26 08:33:58;;;;;;;29.67;22.00;;;25.30;6.00;;;;;;5050093;28;20188;-72
2022/03/26 08:36:24;;;;;;;39.03;21.90;;;25.60;6.10;;;;;;5063485;28;20210;-72
2022/03/26 08:38:50;;;;;;;30.58;22.00;;;26.40;5.70;;;;;;5052298;28;20559;-72
2022/03/26 08:41:19;;;;;;;28.98;21.08;;;27.10;3.40;;;;;;5048806;28;20177;-72
2022/03/26 08:43:46;;;;;;;33.47;21.77;;;27.50;2.70;;;;;;5048270;28;20222;-72
2022/03/26 08:46:11;;;;;;;31.30;21.63;;;27.70;1.00;;;;;;5059504;28;20180;-72
2022/03/26 08:48:37;;;;;;;32.20;21.60;;;28.00;1.00;;;;;;5062027;28;20207;-73
2022/03/26 08:51:03;;;;;;;33.40;22.35;;;28.00;1.00;;;;;;5080259;28;20167;-72
2022/03/26 08:53:29;;;;;;;31.90;22.25;;;27.70;1.00;;;;;;5087549;28;20174;-72
2022/03/26 08:55:55;;;;;;;32.78;22.33;;;27.80;1.00;;;;;;5054382;28;20184;-72
2022/03/26 08:58:21;;;;;;;33.67;22.45;;;28.50;1.00;;;;;;5067362;28;20176;-72
2022/03/26 09:00:48;;;;;;;33.70;22.95;;;28.90;1.00;;;;;;5071266;28;20245;-71
2022/03/26 09:03:17;;;;;;;31.38;22.55;;;29.30;1.00;;;;;;5066868;28;20546;-72
2022/03/26 09:05:42;;;;;;;28.83;22.30;;;29.80;1.00;;;;;;5071018;28;20259;-72
2022/03/26 09:08:08;;;;;;;37.25;22.48;;;29.60;1.00;;;;;;5071553;28;20255;-72
2022/03/26 09:10:35;;;;;;;31.58;22.48;;;29.50;1.00;;;;;;5070245;28;20199;-72
2022/03/26 09:13:00;;;;;;;31.00;22.23;;;29.50;1.00;;;;;;5071024;28;20168;-72
2022/03/26 09:15:26;;;;;;;38.35;24.05;;;29.50;1.00;;;;;;5058770;28;20208;-72
2022/03/26 09:17:51;;;;;;;37.15;23.55;;;29.50;1.00;;;;;;5051087;28;20172;-71
2022/03/26 09:20:17;;;;;;;33.28;23.15;;;29.20;1.00;;;;;;5073555;28;20203;-72
2022/03/26 09:22:43;;;;;;;31.73;22.80;;;29.00;1.00;;;;;;5088876;28;20190;-72
2022/03/26 09:25:08;;;;;;;32.40;22.52;;;29.50;1.00;;;;;;5090577;28;20221;-72
2022/03/26 09:27:34;;;;;;;34.58;22.60;;;30.20;1.00;;;;;;5091171;28;20825;-72
2022/03/26 09:30:00;;;;;;;36.65;23.38;;;31.00;1.00;;;;;;5090535;28;20278;-73
2022/03/26 09:32:25;;;;;;;35.75;23.80;;;31.50;1.00;;;;;;5062484;28;20184;-72
2022/03/26 09:34:51;;;;;;;32.45;23.92;;;32.00;1.00;;;;;;5070265;28;20255;-72
2022/03/26 09:37:17;;;;;;;33.10;22.63;;;32.50;1.00;;;;;;5070984;28;20179;-73
2022/03/26 09:39:43;;;;;;;35.80;23.38;;;32.30;1.00;;;;;;5069316;28;20211;-72
2022/03/26 09:42:10;;;;;;;31.92;23.17;;;32.60;1.00;;;;;;5063629;28;20172;-72
2022/03/26 09:44:36;;;;;;;31.90;24.33;;;32.40;1.00;;;;;;5069226;28;20550;-72
2022/03/26 09:47:06;;;;;;;34.67;23.55;;;32.40;1.00;;;;;;5070582;28;20726;-72
2022/03/26 09:49:32;;;;;;;34.97;24.80;;;32.60;1.00;;;;;;5078247;28;20195;-72
2022/03/26 09:51:59;;;;;;;37.55;23.65;;;32.60;1.00;;;;;;5082172;28;20521;-72
2022/03/26 09:54:25;;;;;;;34.97;23.67;;;33.00;1.00;;;;;;5089784;28;20514;-72
2022/03/26 09:56:51;;;;;;;31.42;23.27;;;33.90;1.00;;;;;;5087876;28;20195;-73
2022/03/26 09:59:23;;;;;;;33.70;24.77;;;33.90;1.00;;;;;;5066370;28;20265;-72
2022/03/26 10:01:50;;;;;;;30.98;22.17;;;33.70;1.00;;;;;;5070527;28;20164;-78
2022/03/26 10:04:18;;;;;;;34.20;23.65;;;33.20;1.00;;;;;;5071621;28;20173;-74
2022/03/26 10:06:48;;;;;;;29.50;21.63;;;33.60;1.00;;;;;;5069521;28;20195;-74
2022/03/26 10:09:26;;;;;;;33.95;24.50;;;34.20;1.00;;;;;;5056210;28;20572;-72
2022/03/26 10:12:06;;;;;;;32.95;23.63;;;33.90;1.00;;;;;;5050559;28;20251;-73
2022/03/26 10:14:51;;;;;;;31.90;22.83;;;33.30;1.00;;;;;;5048381;28;20172;-74
2022/03/26 10:17:24;;;;;;;33.80;23.90;;;33.30;1.00;;;;;;5057784;28;20211;-73
2022/03/26 10:19:55;;;;;;;31.45;23.42;;;34.20;1.00;;;;;;5060831;28;20219;-72
2022/03/26 10:22:32;;;;;;;32.45;22.73;;;34.70;1.00;;;;;;5068976;28;20368;-73
2022/03/26 10:25:09;;;;;;;31.52;23.17;;;34.80;1.00;;;;;;5066924;28;20176;-74
2022/03/26 10:27:36;;;;;;;33.28;23.50;;;34.30;1.00;;;;;;5068813;28;20262;-75
2022/03/26 10:30:03;;;;;;;34.28;24.90;;;34.60;1.00;;;;;;5066538;28;20195;-74
2022/03/26 10:32:40;;;;;;;35.83;23.98;;;35.30;1.00;;;;;;5061231;28;20206;-74
2022/03/26 10:35:10;;;;;;;32.92;24.02;;;35.30;1.00;;;;;;5062882;28;20220;-73
2022/03/26 10:38:16;;;;;;;33.17;24.38;;;35.40;1.00;;;;;;5049949;28;20618;-73
2022/03/26 10:40:42;;;;;;;44.60;23.30;;;35.80;1.00;;;;;;5006506;28;20202;-73
2022/03/26 10:43:11;;;;;;;33.72;24.20;;;35.90;1.00;;;;;;5008663;28;20169;-73
2022/03/26 10:45:46;;;;;;;40.38;23.42;;;35.90;1.00;;;;;;5028161;28;20187;-73
2022/03/26 10:48:11;;;;;;;36.33;25.23;;;35.80;1.00;;;;;;5049274;28;20184;-73
2022/03/26 10:50:37;;;;;;;33.22;23.80;;;35.40;1.00;;;;;;5074056;28;20196;-73
2022/03/26 10:53:09;;;;;;;35.13;23.27;;;35.80;1.00;;;;;;5067010;28;20526;-73
2022/03/26 10:55:36;;;;;;;31.00;24.35;;;36.10;1.00;;;;;;5068317;28;20183;-73
2022/03/26 10:58:04;;;;;;;32.80;24.30;;;36.10;1.00;;;;;;5068039;28;20193;-73
2022/03/26 11:00:30;;;;;;;32.08;24.48;;;36.00;1.00;;;;;;5068781;28;20206;-74
2022/03/26 11:02:55;;;;;;;34.70;24.20;;;36.20;1.00;;;;;;5052429;28;20298;-72
2022/03/26 11:05:22;;;;;;;37.78;23.42;;;36.20;1.00;;;;;;5050362;28;20557;-72
2022/03/26 11:07:49;;;;;;;31.90;23.85;;;35.80;1.00;;;;;;5049339;28;20173;-73
2022/03/26 11:10:15;;;;;;;30.38;24.60;;;35.70;1.00;;;;;;5053476;28;20189;-73
2022/03/26 11:12:46;;;;;;;36.55;23.95;;;36.00;1.00;;;;;;5058440;28;20366;-73
2022/03/26 11:15:26;;;;;;;36.88;25.63;;;36.20;1.00;;;;;;5066718;28;20211;-73
2022/03/26 11:18:17;;;;;;;39.08;24.23;;;36.00;1.00;;;;;;5057495;28;20173;-74
2022/03/26 11:21:07;;;;;;;34.40;24.80;;;35.90;1.00;;;;;;5074310;28;20245;-74
2022/03/26 11:24:10;;;;;;;34.25;23.88;;;36.00;1.00;;;;;;5065567;28;21680;-73
2022/03/26 11:26:48;;;;;;;31.65;23.65;;;36.10;1.00;;;;;;5050938;28;20180;-73
2022/03/26 11:29:33;;;;;;;43.53;24.98;;;36.10;1.00;;;;;;5063464;28;20351;-74
2022/03/26 11:32:27;;;;;;;37.35;23.40;;;36.10;1.00;;;;;;5057388;28;20176;-73
2022/03/26 11:35:05;;;;;;;48.78;24.40;;;36.50;1.00;;;;;;5065287;28;20297;-73
2022/03/26 11:37:30;;;;;;;30.83;23.75;;;37.00;1.00;;;;;;5065823;28;20488;-74
2022/03/26 11:39:56;;;;;;;37.63;23.92;;;37.80;1.00;;;;;;5058889;28;20248;-73
2022/03/26 11:42:23;;;;;;;37.50;24.63;;;37.80;1.00;;;;;;5065776;28;20167;-74
2022/03/26 11:50:41;;;;;;;28.90;23.35;;;39.20;1.00;;;;;;5068030;28;20728;-74
2022/03/26 11:53:08;;;;;;;35.45;23.80;;;37.80;1.00;;;;;;5066887;28;20168;-73
2022/03/26 11:55:48;;;;;;;31.42;23.52;;;37.60;1.00;;;;;;5066129;28;20282;-74
2022/03/26 11:58:22;;;;;;;30.30;22.55;;;37.50;1.00;;;;;;5056981;28;20192;-73
2022/03/26 12:01:04;;;;;;;33.58;22.98;;;37.80;1.00;;;;;;5057145;28;20187;-74
2022/03/26 12:03:40;;;;;;;33.25;23.55;;;38.90;1.00;;;;;;5054718;28;20172;-74
2022/03/26 12:08:54;;;;;;;34.08;24.05;;;38.30;1.00;;;;;;5052391;28;20250;-74
2022/03/26 12:11:27;;;;;;;27.83;22.33;;;38.80;1.00;;;;;;5067877;28;20259;-74
2022/03/26 12:14:04;;;;;;;29.58;22.70;;;39.40;1.00;;;;;;5067435;28;20192;-74
2022/03/26 12:16:55;;;;;;;29.42;21.05;;;39.60;1.00;;;;;;5070597;28;20211;-74
2022/03/26 12:19:46;;;;;;;34.45;22.38;;;39.70;1.00;;;;;;5081541;28;20258;-74
2022/03/26 12:22:18;;;;;;;32.53;21.45;;;39.20;1.00;;;;;;5058830;28;20168;-74
2022/03/26 12:24:45;;;;;;;29.80;20.65;;;39.40;1.00;;;;;;5064845;28;20276;-73
2022/03/26 12:27:11;;;;;;;29.00;21.58;;;40.00;1.00;;;;;;5053408;28;20172;-74
2022/03/26 12:29:41;;;;;;;26.52;20.55;;;40.20;1.00;;;;;;5067556;28;20204;-74
2022/03/26 12:32:07;;;;;;;26.15;17.27;;;40.40;1.00;;;;;;5072001;28;20175;-74
2022/03/26 12:34:33;;;;;;;22.30;16.95;;;40.30;1.00;;;;;;5054188;28;20304;-74
2022/03/26 12:37:03;;;;;;;22.25;15.38;;;40.20;1.00;;;;;;5069060;28;20617;-74
2022/03/26 12:39:28;;;;;;;22.45;16.55;;;39.80;1.00;;;;;;5054089;28;20249;-74
2022/03/26 12:41:55;;;;;;;26.85;16.50;;;39.10;1.00;;;;;;5059575;28;20191;-73
2022/03/26 12:44:22;;;;;;;21.45;15.98;;;39.00;1.00;;;;;;5059296;28;20223;-74